Time;durP1;ratioP1;P1;durP2;ratioP2;P2;SDS_P1;SDS_P2;PMS_P1;PMS_P2;Temp;Humidity;BMP_temperature;BMP_pressure;BME280_temperature;BME280_humidity;BME280_pressure;Samples;Min_cycle;Max_cycle;Signal;HPM_P1;HPM_P2
2022/11/21 00:00:10;;;;;;;0.67;0.67;;;-1.30;99.90;;;;;;5010796;28;20190;-86
2022/11/21 00:02:38;;;;;;;0.53;0.53;;;-1.30;99.90;;;;;;5040049;28;20454;-86
2022/11/21 00:05:04;;;;;;;0.60;0.60;;;-1.30;99.90;;;;;;5002594;28;20438;-86
2022/11/21 00:07:33;;;;;;;0.60;0.60;;;-1.40;99.90;;;;;;5004794;28;20516;-86
2022/11/21 00:09:59;;;;;;;0.50;0.50;;;-1.30;99.90;;;;;;5008001;28;20993;-86
2022/11/21 00:12:24;;;;;;;0.60;0.60;;;-1.30;99.90;;;;;;4988044;28;20542;-86
2022/11/21 00:14:50;;;;;;;0.70;0.70;;;-1.30;99.90;;;;;;5020949;28;20206;-86
2022/11/21 00:17:16;;;;;;;0.70;0.70;;;-1.30;99.90;;;;;;4997411;28;20223;-86
2022/11/21 00:19:41;;;;;;;0.60;0.60;;;-1.30;99.90;;;;;;5009853;28;20597;-86
2022/11/21 00:22:07;;;;;;;0.57;0.57;;;-1.20;99.90;;;;;;5005974;28;21285;-86
2022/11/21 00:24:32;;;;;;;0.70;0.70;;;-1.20;99.90;;;;;;4990281;28;20252;-86
2022/11/21 00:26:58;;;;;;;0.70;0.70;;;-1.10;99.90;;;;;;5018360;28;20194;-86
2022/11/21 00:29:23;;;;;;;0.60;0.60;;;-1.10;99.90;;;;;;5015139;28;20226;-86
2022/11/21 00:31:49;;;;;;;0.70;0.70;;;-1.10;99.90;;;;;;5017182;28;20230;-86
2022/11/21 00:34:17;;;;;;;0.50;0.50;;;-1.10;99.90;;;;;;5030109;28;20194;-86
2022/11/21 00:36:42;;;;;;;0.60;0.60;;;-1.10;99.90;;;;;;5011679;28;20242;-87
2022/11/21 00:39:08;;;;;;;0.60;0.60;;;-1.20;99.90;;;;;;5012403;28;20446;-86
2022/11/21 00:41:33;;;;;;;0.50;0.50;;;-1.20;99.90;;;;;;4966441;28;20270;-86
2022/11/21 00:43:59;;;;;;;0.60;0.60;;;-1.20;99.90;;;;;;5024635;28;20998;-86
2022/11/21 00:46:24;;;;;;;0.60;0.60;;;-1.20;99.90;;;;;;5037276;28;20197;-86
2022/11/21 00:48:50;;;;;;;0.60;0.60;;;-1.20;99.90;;;;;;5020424;28;20198;-86
2022/11/21 00:51:16;;;;;;;0.67;0.67;;;-1.10;99.90;;;;;;5022818;28;20220;-87
2022/11/21 00:53:41;;;;;;;0.60;0.60;;;-1.10;99.90;;;;;;4974402;28;20651;-86
2022/11/21 00:56:07;;;;;;;0.57;0.57;;;-1.10;99.90;;;;;;5019798;28;20210;-87
2022/11/21 00:58:33;;;;;;;0.50;0.50;;;-1.00;99.90;;;;;;4982938;28;20199;-87
2022/11/21 01:01:09;;;;;;;0.60;0.60;;;-1.00;99.90;;;;;;5002482;28;20473;-86
2022/11/21 01:03:35;;;;;;;0.50;0.50;;;-1.00;99.90;;;;;;5025369;28;20246;-86
2022/11/21 01:06:07;;;;;;;0.50;0.50;;;-0.90;99.90;;;;;;5038621;28;20438;-86
2022/11/21 01:08:36;;;;;;;0.70;0.70;;;-0.90;99.90;;;;;;5021433;28;20440;-86
2022/11/21 01:11:07;;;;;;;0.50;0.50;;;-0.90;99.90;;;;;;4991394;28;20496;-86
2022/11/21 01:13:33;;;;;;;0.40;0.40;;;-0.90;99.90;;;;;;5024737;28;20437;-86
2022/11/21 01:16:17;;;;;;;0.47;0.47;;;-0.80;99.90;;;;;;4997423;28;20442;-86
2022/11/21 01:18:43;;;;;;;0.70;0.70;;;-0.90;99.90;;;;;;5000870;28;20465;-86
2022/11/21 01:21:14;;;;;;;0.70;0.70;;;-0.80;99.90;;;;;;4982923;28;20438;-87
2022/11/21 01:23:40;;;;;;;0.50;0.50;;;-0.90;99.90;;;;;;5030145;28;20183;-86
2022/11/21 01:26:11;;;;;;;0.53;0.53;;;-0.90;99.90;;;;;;5019962;28;20524;-87
2022/11/21 01:28:37;;;;;;;0.60;0.60;;;-0.80;99.90;;;;;;5013295;28;20454;-87
2022/11/21 01:31:08;;;;;;;0.60;0.60;;;-0.80;99.90;;;;;;5008967;28;20486;-87
2022/11/21 01:33:34;;;;;;;0.60;0.60;;;-0.90;99.90;;;;;;5020015;28;20699;-86
2022/11/21 01:36:15;;;;;;;0.50;0.50;;;-0.90;99.90;;;;;;5034793;28;20438;-87
2022/11/21 01:38:42;;;;;;;0.60;0.60;;;-0.90;99.90;;;;;;5020819;28;20450;-87
2022/11/21 01:41:10;;;;;;;0.60;0.60;;;-1.00;99.90;;;;;;5017512;28;20458;-87
2022/11/21 01:43:35;;;;;;;0.47;0.47;;;-1.10;99.90;;;;;;5016493;28;21077;-87
2022/11/21 01:46:12;;;;;;;0.50;0.50;;;-1.10;99.90;;;;;;5027375;28;20457;-86
2022/11/21 01:48:59;;;;;;;0.50;0.50;;;-1.10;99.90;;;;;;5026972;28;20180;-86
2022/11/21 01:51:29;;;;;;;0.70;0.70;;;-1.00;99.90;;;;;;5020980;28;20908;-86
2022/11/21 01:54:10;;;;;;;0.60;0.60;;;-1.00;99.90;;;;;;5021271;28;20446;-86
2022/11/21 01:56:41;;;;;;;0.60;0.60;;;-0.90;99.90;;;;;;4989088;28;20454;-86
2022/11/21 01:59:10;;;;;;;0.60;0.60;;;-0.90;99.90;;;;;;4998145;28;21218;-87
2022/11/21 02:01:36;;;;;;;0.60;0.60;;;-1.00;99.90;;;;;;5029280;28;20457;-86
2022/11/21 02:04:04;;;;;;;0.60;0.60;;;-1.00;99.90;;;;;;5014348;28;20499;-86
2022/11/21 02:06:32;;;;;;;0.70;0.70;;;-1.00;99.90;;;;;;5029278;28;20482;-86
2022/11/21 02:08:59;;;;;;;0.50;0.50;;;-0.90;99.90;;;;;;5023216;28;21032;-86
2022/11/21 02:11:46;;;;;;;0.70;0.70;;;-0.90;99.90;;;;;;5031019;28;20997;-86
2022/11/21 02:14:12;;;;;;;0.50;0.50;;;-0.90;99.90;;;;;;5016464;28;20495;-87
2022/11/21 02:16:38;;;;;;;0.60;0.60;;;-0.90;99.90;;;;;;5026121;28;20449;-85
2022/11/21 02:19:05;;;;;;;0.50;0.50;;;-0.90;99.90;;;;;;5009766;28;20197;-86
2022/11/21 02:21:33;;;;;;;0.60;0.60;;;-0.90;99.90;;;;;;5013991;28;20451;-87
2022/11/21 02:24:05;;;;;;;0.50;0.50;;;-0.90;99.90;;;;;;5028356;28;20885;-86
2022/11/21 02:26:30;;;;;;;0.67;0.67;;;-1.00;99.90;;;;;;4997905;28;20537;-87
2022/11/21 02:28:57;;;;;;;0.70;0.70;;;-0.90;99.90;;;;;;5023083;28;20541;-86
2022/11/21 02:31:22;;;;;;;0.60;0.60;;;-0.90;99.90;;;;;;5033033;28;20218;-87
2022/11/21 02:33:48;;;;;;;0.53;0.53;;;-0.90;99.90;;;;;;5029549;28;20550;-86
2022/11/21 02:36:32;;;;;;;0.57;0.57;;;-0.90;99.90;;;;;;5014196;28;20667;-88
2022/11/21 02:38:57;;;;;;;0.50;0.50;;;-0.80;99.90;;;;;;5014565;28;20198;-87
2022/11/21 02:41:27;;;;;;;0.60;0.60;;;-0.90;99.90;;;;;;5012093;28;20447;-86
2022/11/21 02:44:05;;;;;;;0.67;0.67;;;-0.90;99.90;;;;;;5011986;28;20187;-87
2022/11/21 02:46:33;;;;;;;0.40;0.40;;;-0.90;99.90;;;;;;5025139;28;20442;-86
2022/11/21 02:48:59;;;;;;;0.60;0.60;;;-1.00;99.90;;;;;;5027718;28;20430;-87
2022/11/21 02:51:25;;;;;;;0.60;0.60;;;-1.00;99.90;;;;;;5014084;28;20495;-86
2022/11/21 02:53:50;;;;;;;0.53;0.53;;;-1.00;99.90;;;;;;5002064;28;20443;-86
2022/11/21 02:56:16;;;;;;;0.70;0.70;;;-1.00;99.90;;;;;;5005151;28;20266;-86
2022/11/21 02:58:42;;;;;;;0.50;0.50;;;-1.00;99.90;;;;;;5013659;28;20274;-86
2022/11/21 03:01:07;;;;;;;0.50;0.50;;;-1.00;99.90;;;;;;4996971;28;20534;-87
2022/11/21 03:03:33;;;;;;;0.67;0.67;;;-1.00;99.90;;;;;;4994338;28;20684;-87
2022/11/21 03:05:58;;;;;;;0.70;0.70;;;-1.10;99.90;;;;;;5032320;28;20191;-86
2022/11/21 03:08:24;;;;;;;0.60;0.60;;;-1.00;99.90;;;;;;5025748;28;20711;-87
2022/11/21 03:10:49;;;;;;;0.60;0.60;;;-0.90;99.90;;;;;;5006625;28;20231;-87
2022/11/21 03:13:15;;;;;;;0.50;0.50;;;-0.90;99.90;;;;;;5027354;28;20192;-87
2022/11/21 03:15:40;;;;;;;0.57;0.57;;;-0.90;99.90;;;;;;5032843;28;20205;-87
2022/11/21 03:18:06;;;;;;;0.50;0.50;;;-0.90;99.90;;;;;;5027561;28;20207;-87
2022/11/21 03:20:33;;;;;;;0.60;0.60;;;-0.90;99.90;;;;;;5023078;28;21386;-87
2022/11/21 03:22:59;;;;;;;0.50;0.50;;;-0.90;99.90;;;;;;5005735;28;20186;-86
2022/11/21 03:25:24;;;;;;;0.60;0.60;;;-0.80;99.90;;;;;;5005107;28;20445;-86
2022/11/21 03:27:52;;;;;;;0.60;0.60;;;-0.80;99.90;;;;;;5023171;28;20199;-86
2022/11/21 03:30:18;;;;;;;0.60;0.60;;;-0.80;99.90;;;;;;5010021;28;20195;-86
2022/11/21 03:32:44;;;;;;;0.60;0.60;;;-0.70;99.90;;;;;;5017917;28;20494;-87
2022/11/21 03:35:09;;;;;;;0.50;0.50;;;-0.80;99.90;;;;;;5008956;28;20801;-86
2022/11/21 03:37:35;;;;;;;0.60;0.60;;;-0.80;99.90;;;;;;4988990;28;20334;-86
2022/11/21 03:40:00;;;;;;;0.53;0.53;;;-0.70;99.90;;;;;;5018704;28;20628;-86
2022/11/21 03:42:26;;;;;;;0.60;0.60;;;-0.70;99.90;;;;;;5023678;28;20885;-87
2022/11/21 03:44:51;;;;;;;0.60;0.60;;;-0.70;99.90;;;;;;5014671;28;20204;-86
2022/11/21 03:47:17;;;;;;;0.80;0.80;;;-0.70;99.90;;;;;;5005519;28;20192;-87
2022/11/21 03:49:43;;;;;;;0.70;0.70;;;-0.70;99.90;;;;;;5006595;28;20226;-85
2022/11/21 03:52:09;;;;;;;0.63;0.63;;;-0.70;99.90;;;;;;4982811;28;20492;-87
2022/11/21 03:54:34;;;;;;;0.47;0.47;;;-0.70;99.90;;;;;;5021012;28;20194;-86
2022/11/21 03:57:00;;;;;;;0.60;0.60;;;-0.70;99.90;;;;;;4964288;28;20226;-85
2022/11/21 03:59:25;;;;;;;0.50;0.50;;;-0.70;99.90;;;;;;4996381;28;20552;-86
2022/11/21 04:01:51;;;;;;;0.60;0.60;;;-0.60;99.90;;;;;;5013981;28;20185;-86
2022/11/21 04:04:16;;;;;;;0.50;0.50;;;-0.60;99.90;;;;;;5026515;28;20286;-86
2022/11/21 04:06:47;;;;;;;0.60;0.60;;;-0.60;99.90;;;;;;5022446;28;20242;-86
2022/11/21 04:09:12;;;;;;;0.60;0.60;;;-0.70;99.90;;;;;;4990993;28;20348;-86
2022/11/21 04:11:38;;;;;;;0.50;0.50;;;-0.60;99.90;;;;;;5026166;28;21348;-87
2022/11/21 04:14:06;;;;;;;0.60;0.60;;;-0.70;99.90;;;;;;5029691;28;20175;-86
2022/11/21 04:16:31;;;;;;;0.53;0.53;;;-0.70;99.90;;;;;;5022827;28;20298;-86
2022/11/21 04:18:57;;;;;;;0.60;0.60;;;-0.70;99.90;;;;;;5010054;28;21320;-85
2022/11/21 04:21:22;;;;;;;0.50;0.50;;;-0.70;99.90;;;;;;5008520;28;20201;-87
2022/11/21 04:23:48;;;;;;;0.70;0.70;;;-0.70;99.90;;;;;;5034109;28;20599;-86
2022/11/21 04:26:13;;;;;;;0.50;0.50;;;-0.70;99.90;;;;;;5015813;28;20188;-86
2022/11/21 04:28:39;;;;;;;0.50;0.50;;;-0.70;99.90;;;;;;5015505;28;20205;-85
2022/11/21 04:31:06;;;;;;;0.60;0.60;;;-0.70;99.90;;;;;;5009145;28;20591;-86
2022/11/21 04:33:32;;;;;;;0.50;0.50;;;-0.70;99.90;;;;;;5025023;28;20280;-86
2022/11/21 04:35:58;;;;;;;0.60;0.60;;;-0.70;99.90;;;;;;5009280;28;20448;-88
2022/11/21 04:38:31;;;;;;;0.60;0.60;;;-0.80;99.90;;;;;;5009656;28;20458;-86
2022/11/21 04:40:57;;;;;;;0.50;0.50;;;-0.80;99.90;;;;;;5011393;28;20318;-86
2022/11/21 04:43:22;;;;;;;0.60;0.60;;;-0.90;99.90;;;;;;5028826;28;20537;-86
2022/11/21 04:45:51;;;;;;;0.50;0.50;;;-0.90;99.90;;;;;;5023727;28;20577;-86
2022/11/21 04:48:37;;;;;;;0.53;0.53;;;-0.80;99.90;;;;;;5019985;28;20176;-86
2022/11/21 04:51:02;;;;;;;0.70;0.70;;;-0.90;99.90;;;;;;5017840;28;20481;-86
2022/11/21 04:53:28;;;;;;;0.60;0.60;;;-0.90;99.90;;;;;;5020336;28;21019;-86
2022/11/21 04:55:53;;;;;;;0.50;0.50;;;-0.90;99.90;;;;;;5002197;28;20191;-86
2022/11/21 04:58:19;;;;;;;0.60;0.60;;;-0.90;99.90;;;;;;4948552;29;20175;-86
2022/11/21 05:00:44;;;;;;;0.60;0.60;;;-0.90;99.90;;;;;;5026163;28;20551;-86
2022/11/21 05:03:10;;;;;;;0.60;0.60;;;-0.90;99.90;;;;;;5028945;28;20290;-86
2022/11/21 05:05:36;;;;;;;0.60;0.60;;;-0.90;99.90;;;;;;5018275;28;20187;-86
2022/11/21 05:08:02;;;;;;;0.60;0.60;;;-0.90;99.90;;;;;;5015800;28;20194;-86
2022/11/21 05:10:27;;;;;;;0.40;0.40;;;-0.90;99.90;;;;;;5010890;28;20187;-86
2022/11/21 05:15:44;;;;;;;0.60;0.60;;;-0.80;99.90;;;;;;5006631;28;20210;-86
2022/11/21 05:18:09;;;;;;;0.50;0.50;;;-0.80;99.90;;;;;;5012116;28;20930;-86
2022/11/21 05:20:35;;;;;;;0.53;0.53;;;-0.80;99.90;;;;;;5009314;28;20208;-86
2022/11/21 05:23:00;;;;;;;0.60;0.60;;;-0.80;99.90;;;;;;5022996;28;20624;-87
2022/11/21 05:25:26;;;;;;;0.60;0.60;;;-0.70;99.90;;;;;;5015208;28;20196;-86
2022/11/21 05:27:55;;;;;;;0.60;0.60;;;-0.70;99.90;;;;;;5029469;28;20241;-86
2022/11/21 05:30:21;;;;;;;0.50;0.50;;;-0.70;99.90;;;;;;5016790;28;20625;-87
2022/11/21 05:32:46;;;;;;;0.47;0.47;;;-0.70;99.90;;;;;;5012882;28;20496;-86
2022/11/21 05:35:19;;;;;;;0.60;0.60;;;-0.70;99.90;;;;;;5013739;28;20191;-86
2022/11/21 05:37:46;;;;;;;0.70;0.70;;;-0.70;99.90;;;;;;5026766;28;20195;-86
2022/11/21 05:40:14;;;;;;;0.50;0.50;;;-0.70;99.90;;;;;;5033281;28;20449;-86
2022/11/21 05:45:34;;;;;;;0.50;0.50;;;-0.70;99.90;;;;;;5030095;28;20940;-85
2022/11/21 05:48:00;;;;;;;0.60;0.60;;;-0.80;99.90;;;;;;5018838;28;20434;-86
2022/11/21 05:50:26;;;;;;;0.50;0.50;;;-0.70;99.90;;;;;;5029833;28;20439;-86
2022/11/21 05:52:51;;;;;;;0.60;0.60;;;-0.70;99.90;;;;;;5015969;28;20199;-86
2022/11/21 05:55:17;;;;;;;0.50;0.50;;;-0.70;99.90;;;;;;5018549;28;20233;-86
2022/11/21 05:57:42;;;;;;;0.57;0.57;;;-0.70;99.90;;;;;;4964841;28;20196;-86
2022/11/21 06:00:08;;;;;;;0.50;0.50;;;-0.70;99.90;;;;;;5010580;28;20196;-87
2022/11/21 06:05:18;;;;;;;0.73;0.73;;;-0.70;99.90;;;;;;5003938;28;21102;-87
2022/11/21 06:07:43;;;;;;;0.57;0.57;;;-0.70;99.90;;;;;;4966626;28;20453;-86
2022/11/21 06:10:09;;;;;;;0.60;0.60;;;-0.70;99.90;;;;;;5025178;28;20240;-86
2022/11/21 06:12:34;;;;;;;0.53;0.53;;;-0.70;99.90;;;;;;5025795;28;20838;-87
2022/11/21 06:15:00;;;;;;;0.60;0.60;;;-0.70;99.90;;;;;;4978785;28;20188;-86
2022/11/21 06:17:25;;;;;;;0.70;0.70;;;-0.70;99.90;;;;;;5028753;28;20632;-86
2022/11/21 06:19:51;;;;;;;0.60;0.60;;;-0.60;99.90;;;;;;5002616;28;20188;-86
2022/11/21 06:22:17;;;;;;;0.50;0.50;;;-0.70;99.90;;;;;;4979776;28;20301;-86
2022/11/21 06:24:42;;;;;;;0.57;0.57;;;-0.70;99.90;;;;;;5012793;28;21053;-86
2022/11/21 06:27:08;;;;;;;0.70;0.70;;;-0.70;99.90;;;;;;5021759;28;20287;-87
2022/11/21 06:29:33;;;;;;;0.50;0.50;;;-0.70;99.90;;;;;;5018367;28;20192;-87
2022/11/21 06:31:59;;;;;;;0.50;0.50;;;-0.70;99.90;;;;;;5016276;28;20231;-85
2022/11/21 06:34:25;;;;;;;0.50;0.50;;;-0.70;99.90;;;;;;5014350;28;20191;-86
2022/11/21 06:37:11;;;;;;;0.57;0.57;;;-0.70;99.90;;;;;;5022116;28;20721;-87
2022/11/21 06:39:37;;;;;;;0.53;0.53;;;-0.60;99.90;;;;;;5014908;28;20518;-88
2022/11/21 06:42:02;;;;;;;0.60;0.60;;;-0.70;99.90;;;;;;5026197;28;20533;-87
2022/11/21 06:44:28;;;;;;;0.50;0.50;;;-0.70;99.90;;;;;;4977986;28;20189;-86
2022/11/21 06:46:53;;;;;;;0.50;0.50;;;-0.60;99.90;;;;;;4983709;28;20651;-87
2022/11/21 06:49:28;;;;;;;0.60;0.60;;;-0.70;99.90;;;;;;5025506;28;20307;-86
2022/11/21 06:51:54;;;;;;;0.53;0.53;;;-0.70;99.90;;;;;;5016978;28;20301;-86
2022/11/21 06:54:22;;;;;;;0.60;0.60;;;-0.70;99.90;;;;;;5015637;28;20522;-87
2022/11/21 06:56:51;;;;;;;0.60;0.60;;;-0.70;99.90;;;;;;5016909;28;21042;-87
2022/11/21 06:59:16;;;;;;;0.60;0.60;;;-0.60;99.90;;;;;;5010353;28;20438;-87
2022/11/21 07:01:42;;;;;;;0.60;0.60;;;-0.60;99.90;;;;;;4988046;28;21087;-88
2022/11/21 07:04:07;;;;;;;0.60;0.60;;;-0.60;99.90;;;;;;5013985;28;20206;-87
2022/11/21 07:06:33;;;;;;;0.53;0.53;;;-0.60;99.90;;;;;;5012598;28;20290;-88
2022/11/21 07:08:59;;;;;;;0.70;0.70;;;-0.60;99.90;;;;;;4980667;28;20268;-88
2022/11/21 07:11:24;;;;;;;0.60;0.60;;;-0.60;99.90;;;;;;5011520;28;20581;-88
2022/11/21 07:14:11;;;;;;;0.60;0.60;;;-0.50;99.90;;;;;;5019223;28;20215;-88
2022/11/21 07:16:37;;;;;;;0.70;0.70;;;-0.50;99.90;;;;;;5016874;28;20218;-87
2022/11/21 07:19:02;;;;;;;0.60;0.60;;;-0.50;99.90;;;;;;5005403;28;20469;-87
2022/11/21 07:21:28;;;;;;;0.67;0.67;;;-0.50;99.90;;;;;;5011523;28;20482;-87
2022/11/21 07:23:53;;;;;;;0.70;0.70;;;-0.50;99.90;;;;;;5012990;28;20748;-89
2022/11/21 07:26:19;;;;;;;0.70;0.70;;;-0.50;99.90;;;;;;5011507;28;20196;-91
2022/11/21 07:28:44;;;;;;;0.50;0.50;;;-0.50;99.90;;;;;;5016661;28;20191;-89
2022/11/21 07:31:16;;;;;;;0.50;0.50;;;-0.40;99.90;;;;;;5018624;28;20234;-89
2022/11/21 07:33:45;;;;;;;0.40;0.40;;;-0.30;99.90;;;;;;5008095;28;20227;-91
2022/11/21 07:36:11;;;;;;;0.60;0.60;;;-0.30;99.90;;;;;;4997230;28;20459;-89
2022/11/21 07:38:37;;;;;;;0.50;0.50;;;-0.20;99.90;;;;;;5025876;28;21235;-90
2022/11/21 07:41:02;;;;;;;0.63;0.63;;;-0.20;99.90;;;;;;5017829;28;20462;-89
2022/11/21 07:43:28;;;;;;;0.60;0.60;;;-0.20;99.90;;;;;;5034147;28;20239;-90
2022/11/21 07:45:54;;;;;;;0.50;0.50;;;-0.30;99.90;;;;;;5012314;28;20800;-90
2022/11/21 07:48:20;;;;;;;0.60;0.60;;;-0.30;99.90;;;;;;5027751;28;20195;-89
2022/11/21 07:50:45;;;;;;;0.50;0.50;;;-0.20;99.90;;;;;;5026339;28;20489;-89
2022/11/21 07:53:11;;;;;;;0.60;0.60;;;-0.20;99.90;;;;;;5034469;28;20182;-89
2022/11/21 07:55:40;;;;;;;0.60;0.60;;;-0.20;99.90;;;;;;5030140;28;20655;-88
2022/11/21 07:58:11;;;;;;;0.50;0.50;;;-0.10;99.90;;;;;;5020786;28;20194;-88
2022/11/21 08:00:38;;;;;;;0.50;0.50;;;-0.20;99.90;;;;;;4993115;28;20465;-88
2022/11/21 08:03:05;;;;;;;0.50;0.50;;;-0.20;99.90;;;;;;5020838;28;20457;-92
2022/11/21 08:05:35;;;;;;;0.50;0.50;;;-0.10;99.90;;;;;;5025175;28;20439;-89
2022/11/21 08:08:07;;;;;;;0.60;0.60;;;-0.10;99.90;;;;;;5010212;28;20438;-89
2022/11/21 08:10:35;;;;;;;0.60;0.60;;;-0.10;99.90;;;;;;5021026;28;20518;-87
2022/11/21 08:13:01;;;;;;;0.50;0.50;;;-0.10;99.90;;;;;;5040495;28;20472;-86
2022/11/21 08:15:26;;;;;;;0.60;0.60;;;0.00;99.90;;;;;;5025441;28;20447;-89
2022/11/21 08:17:52;;;;;;;0.50;0.50;;;0.00;99.90;;;;;;5012257;28;20191;-87
2022/11/21 08:20:17;;;;;;;0.50;0.50;;;0.10;99.90;;;;;;5010505;28;20180;-88
2022/11/21 08:22:43;;;;;;;0.50;0.50;;;0.10;99.90;;;;;;4996056;28;20244;-88
2022/11/21 08:25:10;;;;;;;0.43;0.43;;;0.10;99.90;;;;;;5010547;28;20592;-88
2022/11/21 08:27:39;;;;;;;0.43;0.43;;;0.10;99.90;;;;;;5018635;28;20598;-90
2022/11/21 08:30:06;;;;;;;0.60;0.60;;;0.20;99.90;;;;;;5008259;28;20977;-91
2022/11/21 08:32:32;;;;;;;0.60;0.60;;;0.20;99.90;;;;;;5014192;28;20598;-89
2022/11/21 08:34:57;;;;;;;0.57;0.57;;;0.20;99.90;;;;;;5027560;28;20589;-93
2022/11/21 08:37:22;;;;;;;0.50;0.50;;;0.20;99.90;;;;;;5007547;28;20718;-86
2022/11/21 08:39:48;;;;;;;0.50;0.50;;;0.20;99.90;;;;;;5025804;28;20282;-86
2022/11/21 08:42:13;;;;;;;0.50;0.50;;;0.20;99.90;;;;;;5024215;28;20218;-84
2022/11/21 08:44:39;;;;;;;0.60;0.60;;;0.20;99.90;;;;;;5031087;28;20197;-87
2022/11/21 08:47:05;;;;;;;0.60;0.60;;;0.20;99.90;;;;;;5022503;28;20203;-91
2022/11/21 08:49:31;;;;;;;0.60;0.60;;;0.30;99.90;;;;;;5024902;28;20245;-88
2022/11/21 08:51:56;;;;;;;0.50;0.50;;;0.30;99.90;;;;;;5027358;28;20485;-91
2022/11/21 08:54:23;;;;;;;0.60;0.60;;;0.30;99.90;;;;;;5016867;28;20212;-93
2022/11/21 08:56:50;;;;;;;0.60;0.60;;;0.30;99.90;;;;;;5015397;28;20659;-94
2022/11/21 08:59:16;;;;;;;0.40;0.40;;;0.30;99.90;;;;;;5025518;28;20456;-89
2022/11/21 09:01:41;;;;;;;0.50;0.50;;;0.30;99.90;;;;;;5025779;28;20450;-85
2022/11/21 09:04:07;;;;;;;0.40;0.40;;;0.40;99.90;;;;;;5051599;28;20458;-95
2022/11/21 09:06:33;;;;;;;0.60;0.60;;;0.40;99.90;;;;;;5028734;28;20240;-94
2022/11/21 09:08:59;;;;;;;0.50;0.50;;;0.40;99.90;;;;;;5038640;28;20439;-94
2022/11/21 09:11:25;;;;;;;0.60;0.60;;;0.40;99.90;;;;;;5030406;28;20591;-94
2022/11/21 09:19:21;;;;;;;0.50;0.50;;;0.30;99.90;;;;;;5033110;28;20453;-95
2022/11/21 09:21:50;;;;;;;0.50;0.50;;;0.40;99.90;;;;;;5036563;28;20437;-95
2022/11/21 09:24:16;;;;;;;0.53;0.53;;;0.40;99.90;;;;;;5032535;28;20191;-94
2022/11/21 09:26:42;;;;;;;0.40;0.40;;;0.50;99.90;;;;;;5034262;28;20437;-94
2022/11/21 09:29:10;;;;;;;0.50;0.50;;;0.50;99.90;;;;;;5037767;28;20253;-96
2022/11/21 09:31:38;;;;;;;0.50;0.50;;;0.50;99.90;;;;;;5039292;28;20482;-96
2022/11/21 09:34:04;;;;;;;0.60;0.60;;;0.60;99.90;;;;;;5037992;28;20457;-94
2022/11/21 09:36:30;;;;;;;0.60;0.60;;;0.60;99.90;;;;;;5010943;28;21016;-94
2022/11/21 09:38:55;;;;;;;0.50;0.50;;;0.50;99.90;;;;;;5043385;28;20555;-96
2022/11/21 09:41:51;;;;;;;0.50;0.50;;;0.50;99.90;;;;;;5041894;28;20203;-96
2022/11/21 09:45:01;;;;;;;0.50;0.50;;;0.50;99.90;;;;;;5040275;28;20199;-96
2022/11/21 09:47:34;;;;;;;0.60;0.60;;;0.60;99.90;;;;;;5035029;28;20807;-96
2022/11/21 09:50:13;;;;;;;0.43;0.43;;;0.60;99.90;;;;;;5042571;28;20469;-91
2022/11/21 09:52:48;;;;;;;0.50;0.50;;;0.60;99.90;;;;;;5032248;28;20487;-96
2022/11/21 09:55:40;;;;;;;0.50;0.50;;;0.70;99.90;;;;;;5038483;28;20444;-95
2022/11/21 09:58:29;;;;;;;0.53;0.53;;;0.60;99.90;;;;;;5035804;28;20528;-95
2022/11/21 10:00:55;;;;;;;0.50;0.50;;;0.50;99.90;;;;;;5025579;28;20435;-94
2022/11/21 10:03:24;;;;;;;0.50;0.50;;;0.60;99.90;;;;;;5037041;28;20443;-95
2022/11/21 10:06:00;;;;;;;0.50;0.50;;;0.60;99.90;;;;;;5015995;28;20181;-96
2022/11/21 10:08:41;;;;;;;0.40;0.40;;;0.50;99.90;;;;;;5025962;28;20461;-96
2022/11/21 10:11:21;;;;;;;0.50;0.50;;;0.60;99.90;;;;;;5033562;28;20517;-96
2022/11/21 10:14:13;;;;;;;0.50;0.50;;;0.60;99.90;;;;;;5036779;28;20445;-93
2022/11/21 10:16:47;;;;;;;0.43;0.43;;;0.60;99.90;;;;;;5032147;28;20925;-96
2022/11/21 10:19:53;;;;;;;0.40;0.40;;;0.70;99.90;;;;;;5034302;28;20447;-96
2022/11/21 10:22:53;;;;;;;0.40;0.40;;;0.70;99.90;;;;;;5037893;28;20451;-95
2022/11/21 10:25:24;;;;;;;0.50;0.50;;;0.70;99.90;;;;;;5040327;28;20537;-92
2022/11/21 10:28:13;;;;;;;0.60;0.60;;;0.80;99.90;;;;;;5024241;28;20458;-96
2022/11/21 10:30:44;;;;;;;0.50;0.50;;;0.80;99.90;;;;;;5032001;28;20472;-96
2022/11/21 10:33:26;;;;;;;0.60;0.60;;;0.80;99.90;;;;;;5022448;28;20559;-95
2022/11/21 10:36:01;;;;;;;0.50;0.50;;;0.90;99.90;;;;;;5050973;28;20438;-94
2022/11/21 10:38:28;;;;;;;0.47;0.47;;;0.90;99.90;;;;;;5039295;28;20937;-94
2022/11/21 10:41:44;;;;;;;0.50;0.50;;;0.90;99.90;;;;;;5030816;28;20439;-95
2022/11/21 10:47:12;;;;;;;0.50;0.50;;;0.90;99.90;;;;;;5030248;28;20510;-96
2022/11/21 10:49:39;;;;;;;0.50;0.50;;;0.90;99.90;;;;;;5026333;28;20439;-96
2022/11/21 10:52:15;;;;;;;0.50;0.50;;;0.90;99.90;;;;;;5023966;28;21059;-94
2022/11/21 10:55:02;;;;;;;0.47;0.47;;;0.90;99.90;;;;;;5036521;28;20445;-95
2022/11/21 10:57:32;;;;;;;0.60;0.60;;;1.10;99.90;;;;;;5024094;28;20458;-95
2022/11/21 11:00:12;;;;;;;0.50;0.50;;;1.10;99.90;;;;;;5022911;28;20446;-95
2022/11/21 11:02:57;;;;;;;0.40;0.40;;;1.20;99.90;;;;;;5026667;28;20461;-93
2022/11/21 11:05:27;;;;;;;0.40;0.40;;;1.20;99.90;;;;;;5027181;28;20438;-95
2022/11/21 11:08:00;;;;;;;0.50;0.50;;;1.20;99.90;;;;;;5030731;28;20435;-94
2022/11/21 11:10:26;;;;;;;0.60;0.60;;;1.20;99.90;;;;;;5024162;28;20446;-96
2022/11/21 11:15:51;;;;;;;0.50;0.50;;;1.20;99.90;;;;;;5029554;28;20449;-86
2022/11/21 11:18:21;;;;;;;0.50;0.50;;;1.20;99.90;;;;;;5020690;28;20712;-87
2022/11/21 11:20:46;;;;;;;0.50;0.50;;;1.20;99.90;;;;;;5042288;28;22306;-85
2022/11/21 11:23:16;;;;;;;0.60;0.60;;;1.20;99.90;;;;;;5048141;28;20445;-87
2022/11/21 11:25:47;;;;;;;0.47;0.47;;;1.20;99.90;;;;;;5031009;28;20187;-86
2022/11/21 11:28:12;;;;;;;0.40;0.40;;;1.30;99.90;;;;;;5030099;28;20452;-86
2022/11/21 11:30:39;;;;;;;0.50;0.50;;;1.30;99.90;;;;;;5025092;28;20473;-89
2022/11/21 11:33:30;;;;;;;0.50;0.50;;;1.30;99.90;;;;;;5010918;28;20231;-90
2022/11/21 11:36:22;;;;;;;0.40;0.40;;;1.30;99.90;;;;;;5031174;28;20406;-87
2022/11/21 11:38:53;;;;;;;0.40;0.40;;;1.40;99.90;;;;;;5026005;28;20946;-90
2022/11/21 11:47:47;;;;;;;0.57;0.57;;;1.50;99.90;;;;;;5015736;28;20460;-87
2022/11/21 11:50:33;;;;;;;0.40;0.40;;;1.60;99.90;;;;;;5031235;28;20468;-90
2022/11/21 11:53:15;;;;;;;0.50;0.50;;;1.60;99.90;;;;;;5030425;28;20445;-90
2022/11/21 11:55:46;;;;;;;0.40;0.40;;;1.60;99.90;;;;;;5028402;28;20443;-90
2022/11/21 11:58:27;;;;;;;0.50;0.50;;;1.60;99.90;;;;;;5030593;28;20584;-88
2022/11/21 12:01:29;;;;;;;0.50;0.50;;;1.70;99.90;;;;;;5023112;28;20444;-90
2022/11/21 12:04:10;;;;;;;0.40;0.40;;;1.80;99.90;;;;;;5022077;28;20537;-90
2022/11/21 12:06:51;;;;;;;0.50;0.50;;;1.90;99.90;;;;;;5028183;28;20448;-91
2022/11/21 12:09:38;;;;;;;0.53;0.53;;;2.00;99.90;;;;;;5034237;28;20477;-90
2022/11/21 12:12:32;;;;;;;0.50;0.50;;;2.00;99.90;;;;;;5020654;28;20479;-90
2022/11/21 12:18:21;;;;;;;0.30;0.30;;;2.10;99.90;;;;;;5025705;28;20446;-88
2022/11/21 12:21:02;;;;;;;0.60;0.60;;;2.10;99.90;;;;;;5007704;28;20442;-89
2022/11/21 12:23:31;;;;;;;0.50;0.50;;;2.10;99.90;;;;;;5015829;28;20505;-88
2022/11/21 12:26:29;;;;;;;0.50;0.50;;;2.10;99.90;;;;;;5027744;28;20529;-88
2022/11/21 12:29:23;;;;;;;0.50;0.50;;;2.10;99.90;;;;;;5025474;28;20457;-89
2022/11/21 12:31:57;;;;;;;0.40;0.40;;;2.20;99.90;;;;;;5036534;28;20489;-88
2022/11/21 12:34:38;;;;;;;0.50;0.50;;;2.10;99.90;;;;;;5029818;28;20543;-88
2022/11/21 12:37:25;;;;;;;0.50;0.50;;;2.10;99.90;;;;;;5032716;28;20457;-90
2022/11/21 12:40:21;;;;;;;0.40;0.40;;;2.20;99.90;;;;;;5030004;28;20460;-90
2022/11/21 12:43:07;;;;;;;0.50;0.50;;;2.20;99.90;;;;;;5028962;28;20445;-89
2022/11/21 12:45:43;;;;;;;0.40;0.40;;;2.30;99.90;;;;;;5027762;28;20489;-89
2022/11/21 12:56:56;;;;;;;0.50;0.50;;;2.20;99.90;;;;;;5032377;28;21134;-87
2022/11/21 12:59:23;;;;;;;0.50;0.50;;;2.20;99.90;;;;;;5022960;28;20434;-86
2022/11/21 13:02:12;;;;;;;0.47;0.47;;;2.10;99.90;;;;;;5030108;28;20990;-87
2022/11/21 13:04:40;;;;;;;0.50;0.50;;;2.00;99.90;;;;;;5031846;28;20464;-88
2022/11/21 13:07:07;;;;;;;0.40;0.40;;;2.00;99.90;;;;;;5025732;28;21004;-88
2022/11/21 13:09:40;;;;;;;0.50;0.50;;;2.00;99.90;;;;;;5030232;28;20465;-87
2022/11/21 13:12:17;;;;;;;0.40;0.40;;;2.00;99.90;;;;;;5034856;28;21270;-88
2022/11/21 13:14:48;;;;;;;0.50;0.50;;;2.00;99.90;;;;;;5031427;28;20434;-88
2022/11/21 13:17:34;;;;;;;0.60;0.60;;;2.00;99.90;;;;;;5029599;28;20469;-88
2022/11/21 13:20:04;;;;;;;0.50;0.50;;;2.00;99.90;;;;;;5027104;28;20445;-87
2022/11/21 13:22:35;;;;;;;0.50;0.50;;;2.00;99.90;;;;;;5018459;28;20446;-87
2022/11/21 13:25:37;;;;;;;0.50;0.50;;;2.00;99.90;;;;;;5029421;28;20437;-87
2022/11/21 13:28:17;;;;;;;0.40;0.40;;;1.90;99.90;;;;;;5028096;28;20445;-87
2022/11/21 13:30:47;;;;;;;0.57;0.57;;;1.90;99.90;;;;;;5025226;28;20452;-87
2022/11/21 13:33:34;;;;;;;0.50;0.50;;;1.90;99.90;;;;;;5022437;28;20486;-87
2022/11/21 13:36:11;;;;;;;0.50;0.50;;;1.80;99.90;;;;;;5030114;28;20449;-88
2022/11/21 13:39:06;;;;;;;0.50;0.50;;;1.90;99.90;;;;;;5030842;28;20444;-88
2022/11/21 13:44:28;;;;;;;0.50;0.50;;;1.80;99.90;;;;;;5031777;28;20457;-87
2022/11/21 13:47:00;;;;;;;0.50;0.50;;;1.80;99.90;;;;;;5024893;28;20450;-87